createdAt,value
2023-01-26T00:02:21.532Z,2.39
2023-01-26T00:04:49.630Z,2.38
2023-01-26T00:07:17.750Z,2.36
2023-01-26T00:09:45.830Z,2.36
2023-01-26T00:12:15.390Z,2.34
2023-01-26T00:14:52.385Z,2.36
2023-01-26T00:17:28.056Z,2.34
2023-01-26T00:19:57.839Z,2.32
2023-01-26T00:22:27.707Z,2.32
2023-01-26T00:24:55.854Z,2.32
2023-01-26T00:27:25.325Z,2.32
2023-01-26T00:29:53.422Z,2.31
2023-01-26T00:32:21.538Z,2.30
2023-01-26T00:34:49.676Z,2.31
2023-01-26T00:37:17.761Z,2.31
2023-01-26T00:39:45.843Z,2.30
2023-01-26T00:42:15.989Z,2.29
2023-01-26T00:44:45.750Z,2.30
2023-01-26T00:47:14.935Z,2.29
2023-01-26T00:49:43.006Z,2.29
2023-01-26T00:52:11.439Z,2.31
2023-01-26T00:54:39.842Z,2.29
2023-01-26T00:57:08.008Z,2.28
2023-01-26T00:59:36.130Z,2.28
2023-01-26T01:02:05.652Z,2.25
2023-01-26T01:04:34.081Z,2.22
2023-01-26T01:07:02.213Z,2.22
2023-01-26T01:09:30.435Z,2.21
2023-01-26T01:11:58.431Z,2.22
2023-01-26T01:14:26.496Z,2.21
2023-01-26T01:16:54.508Z,2.20
2023-01-26T01:19:23.944Z,2.18
2023-01-26T01:21:52.005Z,2.17
2023-01-26T01:24:20.167Z,2.18
2023-01-26T01:26:48.417Z,2.20
2023-01-26T01:29:16.576Z,2.20
2023-01-26T01:31:44.849Z,2.21
2023-01-26T01:34:13.309Z,2.21
2023-01-26T01:36:42.837Z,2.20
2023-01-26T01:39:10.987Z,2.21
2023-01-26T01:41:38.951Z,2.21
2023-01-26T01:44:18.940Z,2.20
2023-01-26T01:46:56.388Z,2.20
2023-01-26T01:49:28.977Z,2.19
2023-01-26T01:52:03.620Z,2.17
2023-01-26T01:54:36.189Z,2.15
2023-01-26T01:57:15.795Z,2.15
2023-01-26T01:59:46.018Z,2.15
2023-01-26T02:02:15.922Z,2.13
2023-01-26T02:04:44.257Z,2.11
2023-01-26T02:07:14.860Z,2.10
2023-01-26T02:10:00.781Z,2.09
2023-01-26T02:12:32.252Z,2.10
2023-01-26T02:15:01.528Z,2.10
2023-01-26T02:17:29.676Z,2.09
2023-01-26T02:20:05.654Z,2.06
2023-01-26T02:22:43.402Z,2.03
2023-01-26T02:25:20.756Z,2.02
2023-01-26T02:27:50.610Z,2.01
2023-01-26T02:30:19.012Z,2.02
2023-01-26T02:32:47.161Z,2.02
2023-01-26T02:35:15.407Z,2.02
2023-01-26T02:37:43.471Z,1.99
2023-01-26T02:40:17.617Z,1.98
2023-01-26T02:42:44.641Z,1.98
2023-01-26T02:45:16.949Z,1.94
2023-01-26T02:47:45.403Z,1.95
2023-01-26T02:50:13.170Z,1.95
2023-01-26T02:52:41.831Z,1.98
2023-01-26T02:55:28.941Z,1.98
2023-01-26T02:57:58.536Z,1.98
2023-01-26T03:00:29.898Z,1.97
2023-01-26T03:03:00.139Z,1.97
2023-01-26T03:05:28.872Z,1.94
2023-01-26T03:07:57.428Z,1.92
2023-01-26T03:10:27.182Z,1.89
2023-01-26T03:12:55.300Z,1.87
2023-01-26T03:15:40.769Z,1.85
2023-01-26T03:18:29.114Z,1.79
2023-01-26T03:21:14.537Z,1.74
2023-01-26T03:23:59.866Z,1.67
2023-01-26T03:26:45.286Z,1.62
2023-01-26T03:29:13.744Z,1.60
2023-01-26T03:31:41.912Z,1.55
2023-01-26T03:34:11.545Z,1.48
2023-01-26T03:36:39.677Z,1.47
2023-01-26T03:39:07.958Z,1.48
2023-01-26T03:41:53.482Z,1.49
2023-01-26T03:44:38.958Z,1.49
2023-01-26T03:47:24.228Z,1.46
2023-01-26T03:50:11.599Z,1.42
2023-01-26T03:52:56.886Z,1.40
2023-01-26T03:55:42.392Z,1.38
2023-01-26T03:58:10.674Z,1.33
2023-01-26T04:00:38.797Z,1.30
2023-01-26T04:03:24.239Z,1.22
2023-01-26T04:06:16.227Z,1.14
2023-01-26T04:08:45.360Z,1.01
2023-01-26T04:11:13.566Z,0.92
2023-01-26T04:13:58.944Z,0.83
2023-01-26T04:16:44.257Z,0.75
2023-01-26T04:19:29.641Z,0.70
2023-01-26T04:21:59.970Z,0.61
2023-01-26T04:24:28.121Z,0.54
2023-01-26T04:26:56.407Z,0.41
2023-01-26T04:29:24.438Z,0.31
2023-01-26T04:31:52.752Z,0.19
2023-01-26T04:34:20.875Z,0.09
2023-01-26T04:36:48.940Z,0.00
2023-01-26T04:39:18.434Z,-0.10
2023-01-26T04:41:47.145Z,-0.20
2023-01-26T04:44:15.306Z,-0.28
2023-01-26T04:46:44.003Z,-0.36
2023-01-26T04:49:12.160Z,-0.44
2023-01-26T04:51:40.232Z,-0.51
2023-01-26T04:54:08.434Z,-0.57
2023-01-26T04:56:37.955Z,-0.63
2023-01-26T04:59:08.187Z,-0.67
2023-01-26T05:01:36.404Z,-0.72
2023-01-26T05:04:06.326Z,-0.77
2023-01-26T05:06:34.698Z,-0.80
2023-01-26T05:09:02.722Z,-0.85
2023-01-26T05:11:30.916Z,-0.88
2023-01-26T05:14:00.408Z,-0.93
2023-01-26T05:16:28.494Z,-0.96
2023-01-26T05:18:56.670Z,-1.01
2023-01-26T05:21:27.529Z,-1.05
2023-01-26T05:23:56.028Z,-1.08
2023-01-26T05:26:24.277Z,-1.10
2023-01-26T05:28:52.417Z,-1.15
2023-01-26T05:31:21.937Z,-1.19
2023-01-26T05:33:50.003Z,-1.20
2023-01-26T05:36:18.271Z,-1.23
2023-01-26T05:38:47.297Z,-1.27
2023-01-26T05:41:15.471Z,-1.31
2023-01-26T05:43:43.657Z,-1.33
2023-01-26T05:46:11.757Z,-1.37
2023-01-26T05:48:41.285Z,-1.40
2023-01-26T05:51:09.426Z,-1.41
2023-01-26T05:53:37.491Z,-1.42
2023-01-26T05:56:05.890Z,-1.42
2023-01-26T05:58:33.969Z,-1.42
2023-01-26T06:01:05.800Z,-1.43
2023-01-26T06:03:33.892Z,-1.46
2023-01-26T06:06:03.376Z,-1.48
2023-01-26T06:08:31.429Z,-1.49
2023-01-26T06:11:01.364Z,-1.53
2023-01-26T06:13:29.409Z,-1.54
2023-01-26T06:15:57.461Z,-1.56
2023-01-26T06:18:25.507Z,-1.60
2023-01-26T06:20:53.536Z,-1.56
2023-01-26T06:23:23.125Z,-1.58
2023-01-26T06:25:51.861Z,-1.55
2023-01-26T06:28:20.735Z,-1.54
2023-01-26T06:30:48.907Z,-1.53
2023-01-26T06:33:17.089Z,-1.51
2023-01-26T06:35:45.152Z,-1.48
2023-01-26T06:38:15.721Z,-1.43
2023-01-26T06:40:45.295Z,-1.37
2023-01-26T06:43:13.356Z,-1.29
2023-01-26T06:45:42.047Z,-1.22
2023-01-26T06:48:12.453Z,-1.14
2023-01-26T06:50:41.363Z,-1.05
2023-01-26T06:53:27.899Z,-1.00
2023-01-26T06:55:57.369Z,-0.92
2023-01-26T06:58:25.583Z,-0.85
2023-01-26T07:00:54.905Z,-0.82
2023-01-26T07:03:23.153Z,-0.77
2023-01-26T07:05:51.263Z,-0.71
2023-01-26T07:08:19.460Z,-0.64
2023-01-26T07:10:47.721Z,-0.55
2023-01-26T07:13:17.450Z,-0.47
2023-01-26T07:15:45.616Z,-0.38
2023-01-26T07:18:13.709Z,-0.30
2023-01-26T07:20:41.753Z,-0.18
2023-01-26T07:23:12.553Z,-0.05
2023-01-26T07:25:44.731Z,0.05
2023-01-26T07:28:12.922Z,0.18
2023-01-26T07:30:42.488Z,0.32
2023-01-26T07:33:10.620Z,0.44
2023-01-26T07:35:38.716Z,0.57
2023-01-26T07:38:07.181Z,0.72
2023-01-26T07:40:35.532Z,0.85
2023-01-26T07:43:03.749Z,0.98
2023-01-26T07:45:32.208Z,1.11
2023-01-26T07:48:01.690Z,1.26
2023-01-26T07:50:29.708Z,1.34
2023-01-26T07:52:57.953Z,1.47
2023-01-26T07:55:26.553Z,1.59
2023-01-26T07:57:54.671Z,1.56
2023-01-26T08:00:23.117Z,1.70
2023-01-26T08:02:51.533Z,1.78
2023-01-26T08:05:21.182Z,1.86
2023-01-26T08:10:18.376Z,1.94
2023-01-26T08:12:46.428Z,2.03
2023-01-26T08:15:14.593Z,2.13
2023-01-26T08:17:43.020Z,2.21
2023-01-26T08:20:14.161Z,2.28
2023-01-26T08:22:43.829Z,2.29
2023-01-26T08:25:11.932Z,2.35
2023-01-26T08:27:40.132Z,2.37
2023-01-26T08:30:10.088Z,2.41
2023-01-26T08:32:39.011Z,2.52
2023-01-26T08:35:07.886Z,2.59
2023-01-26T08:37:35.942Z,2.67
2023-01-26T08:40:06.536Z,2.70
2023-01-26T08:42:34.668Z,2.77
2023-01-26T08:45:02.694Z,2.89
2023-01-26T08:47:30.760Z,3.00
2023-01-26T08:49:58.880Z,3.06
2023-01-26T08:52:27.132Z,3.11
2023-01-26T08:54:55.207Z,3.17
2023-01-26T08:57:24.826Z,3.27
2023-01-26T08:59:52.992Z,3.41
2023-01-26T09:02:21.203Z,3.58
2023-01-26T09:04:49.304Z,3.76
2023-01-26T09:07:17.288Z,4.01
2023-01-26T09:09:45.380Z,4.26
2023-01-26T09:12:13.532Z,4.30
2023-01-26T09:14:42.988Z,4.37
2023-01-26T09:17:11.054Z,4.44
2023-01-26T09:19:39.130Z,4.47
2023-01-26T09:22:07.126Z,4.49
2023-01-26T09:24:35.175Z,4.52
2023-01-26T09:27:03.226Z,4.43
2023-01-26T09:29:31.232Z,4.41
2023-01-26T09:32:00.710Z,4.36
2023-01-26T09:34:28.994Z,4.39
2023-01-26T09:36:57.053Z,4.52
2023-01-26T09:39:25.118Z,4.69
2023-01-26T09:42:15.618Z,4.77
2023-01-26T09:44:51.741Z,4.90
2023-01-26T09:47:27.211Z,4.95
2023-01-26T09:50:02.153Z,5.09
2023-01-26T09:52:32.120Z,5.12
2023-01-26T09:55:05.557Z,5.17
2023-01-26T09:57:38.774Z,4.99
2023-01-26T10:00:11.423Z,5.00
2023-01-26T10:02:54.788Z,5.05
2023-01-26T10:05:31.477Z,4.91
2023-01-26T10:07:59.645Z,5.05
2023-01-26T10:10:32.852Z,5.18
2023-01-26T10:13:01.214Z,5.18
2023-01-26T10:15:33.075Z,5.14
2023-01-26T10:18:08.204Z,5.17
2023-01-26T10:20:39.589Z,5.37
2023-01-26T10:23:13.402Z,5.57
2023-01-26T10:25:42.686Z,5.63
2023-01-26T10:28:15.651Z,5.54
2023-01-26T10:30:45.561Z,5.55
2023-01-26T10:33:21.416Z,5.61
2023-01-26T10:35:49.494Z,5.87
2023-01-26T10:38:43.235Z,6.17
2023-01-26T10:41:29.874Z,6.13
2023-01-26T10:43:59.899Z,6.05
2023-01-26T10:46:31.516Z,5.88
2023-01-26T10:49:04.241Z,5.61
2023-01-26T10:51:34.257Z,5.65
2023-01-26T10:54:20.264Z,5.74
2023-01-26T10:56:51.466Z,5.82
2023-01-26T10:59:27.152Z,5.71
2023-01-26T11:01:57.862Z,5.87
2023-01-26T11:04:28.192Z,5.89
2023-01-26T11:06:57.064Z,6.06
2023-01-26T11:09:29.013Z,6.01
2023-01-26T11:12:02.649Z,5.95
2023-01-26T11:14:31.621Z,6.04
2023-01-26T11:17:16.006Z,6.14
2023-01-26T11:20:08.722Z,6.31
2023-01-26T11:22:48.623Z,6.55
2023-01-26T11:25:24.412Z,6.62
2023-01-26T11:28:03.601Z,6.68
2023-01-26T11:30:56.659Z,6.60
2023-01-26T11:33:31.328Z,6.63
2023-01-26T11:36:11.077Z,6.68
2023-01-26T11:38:41.797Z,6.75
2023-01-26T11:41:21.819Z,6.90
2023-01-26T11:44:20.276Z,6.76
2023-01-26T11:47:03.187Z,6.62
2023-01-26T11:49:49.100Z,6.53
2023-01-26T11:52:27.061Z,6.40
2023-01-26T11:55:08.904Z,6.37
2023-01-26T11:57:44.876Z,6.37
2023-01-26T12:00:29.477Z,6.32
2023-01-26T12:03:00.530Z,6.35
2023-01-26T12:05:32.418Z,6.48
2023-01-26T12:08:07.030Z,6.66
2023-01-26T12:10:43.210Z,6.85
2023-01-26T12:13:21.159Z,6.88
2023-01-26T12:15:55.267Z,7.00
2023-01-26T12:18:38.132Z,7.10
2023-01-26T12:21:13.617Z,7.11
2023-01-26T12:23:52.900Z,7.20
2023-01-26T12:26:23.877Z,7.31
2023-01-26T12:29:01.558Z,7.16
2023-01-26T12:31:37.142Z,7.19
2023-01-26T12:34:10.573Z,7.27
2023-01-26T12:36:49.340Z,7.38
2023-01-26T12:39:26.550Z,7.24
2023-01-26T12:42:17.264Z,7.10
2023-01-26T12:44:50.303Z,7.11
2023-01-26T12:47:25.047Z,7.16
2023-01-26T12:50:01.142Z,7.17
2023-01-26T12:52:36.284Z,7.19
2023-01-26T12:55:08.528Z,7.27
2023-01-26T12:57:42.517Z,7.28
2023-01-26T13:00:21.691Z,7.23
2023-01-26T13:02:53.616Z,7.16
2023-01-26T13:05:27.891Z,7.16
2023-01-26T13:07:56.059Z,7.14
2023-01-26T13:10:46.904Z,7.06
2023-01-26T13:13:33.382Z,6.96
2023-01-26T13:16:35.175Z,6.76
2023-01-26T13:19:04.482Z,6.70
2023-01-26T13:21:44.854Z,6.59
2023-01-26T13:24:44.225Z,6.47
2023-01-26T13:27:36.022Z,6.20
2023-01-26T13:30:05.487Z,6.17
2023-01-26T13:33:05.425Z,6.17
2023-01-26T13:35:34.848Z,6.15
2023-01-26T13:38:11.658Z,6.14
2023-01-26T13:40:45.126Z,6.17
2023-01-26T13:43:26.686Z,6.17
2023-01-26T13:46:11.145Z,6.14
2023-01-26T13:48:48.363Z,6.18
2023-01-26T13:51:19.720Z,6.13
2023-01-26T13:53:57.938Z,5.73
2023-01-26T13:56:29.895Z,5.67
2023-01-26T13:59:12.607Z,5.62
2023-01-26T14:01:45.957Z,5.53
2023-01-26T14:04:16.274Z,5.36
2023-01-26T14:06:47.972Z,5.38
2023-01-26T14:09:16.731Z,5.29
2023-01-26T14:11:46.492Z,5.22
2023-01-26T14:14:25.181Z,5.19
2023-01-26T14:16:53.359Z,5.09
2023-01-26T14:19:23.252Z,5.06
2023-01-26T14:21:53.153Z,5.09
2023-01-26T14:24:27.588Z,5.12
2023-01-26T14:26:55.875Z,5.12
2023-01-26T14:29:27.236Z,5.13
2023-01-26T14:31:57.783Z,5.14
2023-01-26T14:34:28.042Z,5.12
2023-01-26T14:37:14.089Z,4.97
2023-01-26T14:39:44.991Z,5.01
2023-01-26T14:42:16.342Z,4.95
2023-01-26T14:44:46.325Z,4.79
2023-01-26T14:47:20.671Z,4.85
2023-01-26T14:49:54.486Z,4.86
2023-01-26T14:52:28.012Z,4.76
2023-01-26T14:54:58.838Z,4.67
2023-01-26T14:57:29.478Z,4.69
2023-01-26T15:00:02.864Z,4.63
2023-01-26T15:02:37.597Z,4.59
2023-01-26T15:05:13.006Z,4.51
2023-01-26T15:07:44.938Z,4.46
2023-01-26T15:10:37.763Z,4.48
2023-01-26T15:13:08.525Z,4.53
2023-01-26T15:15:40.036Z,4.57
2023-01-26T15:18:20.491Z,4.54
2023-01-26T15:21:00.604Z,4.60
2023-01-26T15:23:32.159Z,4.65
2023-01-26T15:26:08.860Z,4.66
2023-01-26T15:28:38.692Z,4.64
2023-01-26T15:31:09.022Z,4.60
2023-01-26T15:33:40.398Z,4.60
2023-01-26T15:36:32.682Z,4.51
2023-01-26T15:39:12.112Z,4.53
2023-01-26T15:41:40.614Z,4.58
2023-01-26T15:44:16.941Z,4.52
2023-01-26T15:46:47.021Z,4.50
2023-01-26T15:49:18.383Z,4.48
2023-01-26T15:51:46.415Z,4.45
2023-01-26T15:54:14.506Z,4.46
2023-01-26T15:56:43.253Z,4.47
2023-01-26T15:59:11.290Z,4.47
2023-01-26T16:01:39.542Z,4.47
2023-01-26T16:04:13.731Z,4.49
2023-01-26T16:06:41.886Z,4.49
2023-01-26T16:09:09.983Z,4.48
2023-01-26T16:11:42.588Z,4.47
2023-01-26T16:14:13.270Z,4.45
2023-01-26T16:16:41.732Z,4.43
2023-01-26T16:19:11.461Z,4.43
2023-01-26T16:21:41.109Z,4.41
2023-01-26T16:24:11.826Z,4.39
2023-01-26T16:26:40.018Z,4.39
2023-01-26T16:29:11.150Z,4.39
2023-01-26T16:31:41.439Z,4.39
2023-01-26T16:34:11.912Z,4.36
2023-01-26T16:36:40.056Z,4.39
2023-01-26T16:39:08.273Z,4.40
2023-01-26T16:41:36.546Z,4.42
2023-01-26T16:44:05.054Z,4.41
2023-01-26T16:46:33.624Z,4.40
2023-01-26T16:49:01.747Z,4.37
2023-01-26T16:51:34.055Z,4.35
2023-01-26T16:54:02.128Z,4.35
2023-01-26T16:56:30.196Z,4.34
2023-01-26T16:58:58.201Z,4.33
2023-01-26T17:01:29.012Z,4.30
2023-01-26T17:03:57.506Z,4.30
2023-01-26T17:06:25.676Z,4.28
2023-01-26T17:08:55.263Z,4.29
2023-01-26T17:11:27.747Z,4.28
2023-01-26T17:13:57.261Z,4.27
2023-01-26T17:16:29.630Z,4.26
2023-01-26T17:18:58.068Z,4.25
2023-01-26T17:21:26.866Z,4.22
2023-01-26T17:23:58.986Z,4.21
2023-01-26T17:26:29.641Z,4.20
2023-01-26T17:28:57.869Z,4.23
2023-01-26T17:31:26.679Z,4.23
2023-01-26T17:33:56.492Z,4.24
2023-01-26T17:36:24.944Z,4.22
2023-01-26T17:38:53.812Z,4.20
2023-01-26T17:41:23.638Z,4.13
2023-01-26T17:43:53.182Z,4.07
2023-01-26T17:46:22.828Z,3.99
2023-01-26T17:48:51.855Z,3.97
2023-01-26T17:51:23.221Z,3.94
2023-01-26T17:53:51.619Z,3.95
2023-01-26T17:56:22.552Z,3.90
2023-01-26T17:58:53.644Z,3.90
2023-01-26T18:01:23.117Z,3.89
2023-01-26T18:03:53.650Z,3.91
2023-01-26T18:06:22.249Z,3.89
2023-01-26T18:08:50.347Z,3.90
2023-01-26T18:11:18.729Z,3.90
2023-01-26T18:13:47.034Z,3.92
2023-01-26T18:16:19.061Z,3.97
2023-01-26T18:18:48.048Z,4.02
2023-01-26T18:21:17.910Z,4.03
2023-01-26T18:23:47.708Z,4.00
2023-01-26T18:26:16.527Z,3.97
2023-01-26T18:28:45.403Z,3.97
2023-01-26T18:31:15.300Z,3.97
2023-01-26T18:33:45.017Z,3.96
2023-01-26T18:36:14.881Z,3.94
2023-01-26T18:38:44.526Z,3.93
2023-01-26T18:41:13.604Z,3.94
2023-01-26T18:43:42.274Z,3.94
2023-01-26T18:46:11.988Z,3.92
2023-01-26T18:48:40.111Z,3.88
2023-01-26T18:51:10.232Z,3.81
2023-01-26T18:53:40.190Z,3.73
2023-01-26T18:56:11.276Z,3.64
2023-01-26T18:58:40.760Z,3.52
2023-01-26T19:01:12.437Z,3.44
2023-01-26T19:03:47.290Z,3.38
2023-01-26T19:06:19.841Z,3.32
2023-01-26T19:08:49.032Z,3.31
2023-01-26T19:11:17.046Z,3.29
2023-01-26T19:13:48.900Z,3.27
2023-01-26T19:16:17.074Z,3.27
2023-01-26T19:18:45.308Z,3.28
2023-01-26T19:21:13.430Z,3.28
2023-01-26T19:23:43.078Z,3.26
2023-01-26T19:26:12.532Z,3.20
2023-01-26T19:28:41.994Z,3.20
2023-01-26T19:31:10.842Z,3.18
2023-01-26T19:33:39.378Z,3.13
2023-01-26T19:36:09.328Z,3.13
2023-01-26T19:38:39.750Z,3.13
2023-01-26T19:41:09.462Z,3.14
2023-01-26T19:43:37.671Z,3.11
2023-01-26T19:46:08.433Z,3.08
2023-01-26T19:48:36.670Z,3.01
2023-01-26T19:51:06.386Z,2.99
2023-01-26T19:53:36.962Z,3.02
2023-01-26T19:56:11.203Z,2.96
2023-01-26T19:58:39.874Z,2.94
2023-01-26T20:01:10.543Z,2.90
2023-01-26T20:03:39.630Z,2.88
2023-01-26T20:06:14.360Z,2.88
2023-01-26T20:08:42.560Z,2.87
2023-01-26T20:11:12.151Z,2.87
2023-01-26T20:13:40.539Z,2.88
2023-01-26T20:16:08.978Z,2.88
2023-01-26T20:18:38.115Z,2.88
2023-01-26T20:21:07.644Z,2.89
2023-01-26T20:23:36.939Z,2.91
2023-01-26T20:26:06.980Z,2.98
2023-01-26T20:28:37.824Z,3.04
2023-01-26T20:31:08.422Z,3.04
2023-01-26T20:33:37.191Z,3.02
2023-01-26T20:36:09.853Z,3.01
2023-01-26T20:38:37.908Z,3.01
2023-01-26T20:41:09.656Z,3.02
2023-01-26T20:43:43.824Z,3.05
2023-01-26T20:46:21.465Z,3.03
2023-01-26T20:48:49.566Z,3.06
2023-01-26T20:51:19.908Z,3.10
2023-01-26T20:53:49.718Z,3.17
2023-01-26T20:56:20.629Z,3.23
2023-01-26T20:58:53.321Z,3.27
2023-01-26T21:01:22.504Z,3.32
2023-01-26T21:03:51.532Z,3.37
2023-01-26T21:06:21.512Z,3.45
2023-01-26T21:08:52.563Z,3.48
2023-01-26T21:11:21.287Z,3.48
2023-01-26T21:13:52.018Z,3.47
2023-01-26T21:16:20.654Z,3.47
2023-01-26T21:18:49.365Z,3.44
2023-01-26T21:21:18.640Z,3.38
2023-01-26T21:23:47.368Z,3.27
2023-01-26T21:26:17.250Z,3.18
2023-01-26T21:28:46.441Z,3.19
2023-01-26T21:31:16.933Z,3.17
2023-01-26T21:33:46.654Z,3.15
2023-01-26T21:36:16.564Z,3.15
2023-01-26T21:38:45.980Z,3.15
2023-01-26T21:41:30.522Z,3.14
2023-01-26T21:43:59.043Z,3.16
2023-01-26T21:46:29.828Z,3.15
2023-01-26T21:48:58.349Z,3.16
2023-01-26T21:51:47.261Z,3.12
2023-01-26T21:54:16.349Z,3.10
2023-01-26T21:56:44.680Z,3.08
2023-01-26T21:59:14.684Z,3.08
2023-01-26T22:01:45.639Z,3.10
2023-01-26T22:04:16.443Z,3.15
2023-01-26T22:06:44.540Z,3.19
2023-01-26T22:09:15.148Z,3.22
2023-01-26T22:11:43.945Z,3.25
2023-01-26T22:14:16.147Z,3.25
2023-01-26T22:16:45.952Z,3.29
2023-01-26T22:19:14.997Z,3.28
2023-01-26T22:21:43.315Z,3.29
2023-01-26T22:24:12.319Z,3.28
2023-01-26T22:26:40.716Z,3.25
2023-01-26T22:29:09.204Z,3.24
2023-01-26T22:31:37.358Z,3.20
2023-01-26T22:34:07.063Z,3.17
2023-01-26T22:36:35.128Z,3.14
2023-01-26T22:39:03.212Z,3.12
2023-01-26T22:41:31.862Z,3.13
2023-01-26T22:44:01.419Z,3.18
2023-01-26T22:46:31.702Z,3.21
2023-01-26T22:49:00.478Z,3.21
2023-01-26T22:51:31.322Z,3.25
2023-01-26T22:54:00.478Z,3.29
2023-01-26T22:56:29.343Z,3.32
2023-01-26T22:59:00.635Z,3.34
2023-01-26T23:01:30.309Z,3.35
2023-01-26T23:03:59.132Z,3.35
2023-01-26T23:06:27.866Z,3.33
2023-01-26T23:08:58.364Z,3.34
2023-01-26T23:11:28.569Z,3.37
2023-01-26T23:13:58.509Z,3.45
2023-01-26T23:16:27.544Z,3.54
2023-01-26T23:18:57.890Z,3.59
2023-01-26T23:21:27.326Z,3.64
2023-01-26T23:23:55.545Z,3.71
2023-01-26T23:26:25.549Z,3.74
2023-01-26T23:28:53.587Z,3.78
2023-01-26T23:31:21.885Z,3.86
2023-01-26T23:33:50.189Z,3.89
2023-01-26T23:36:18.210Z,3.86
2023-01-26T23:38:46.535Z,3.82
2023-01-26T23:41:14.878Z,3.74
2023-01-26T23:43:44.383Z,3.69
2023-01-26T23:46:13.173Z,3.72
2023-01-26T23:48:41.260Z,3.73
2023-01-26T23:51:12.267Z,3.72
2023-01-26T23:53:40.788Z,3.71
2023-01-26T23:56:11.524Z,3.72
2023-01-26T23:58:39.830Z,3.74
